Time;durP1;ratioP1;P1;durP2;ratioP2;P2;SDS_P1;SDS_P2;PMS_P1;PMS_P2;Temp;Humidity;BMP_temperature;BMP_pressure;BME280_temperature;BME280_humidity;BME280_pressure;Samples;Min_cycle;Max_cycle;Signal;HPM_P1;HPM_P2
2022/05/19 00:01:37;;;;;;;1.60;1.10;;;;;;;19.02;60.51;98878.84;4153235;28;20233;-53
2022/05/19 00:03:39;;;;;;;1.55;1.45;;;;;;;19.01;60.31;98891.06;4138335;28;20640;-53
2022/05/19 00:05:41;;;;;;;1.95;1.00;;;;;;;19.00;60.50;98878.31;4136358;28;20206;-52
2022/05/19 00:07:43;;;;;;;1.17;1.00;;;;;;;18.92;60.78;98881.75;4134529;28;20210;-52
2022/05/19 00:09:45;;;;;;;1.05;0.95;;;;;;;18.87;60.88;98873.47;4134251;28;20209;-52
2022/05/19 00:11:47;;;;;;;1.25;1.15;;;;;;;18.86;60.93;98880.97;4130240;28;20256;-52
2022/05/19 00:13:49;;;;;;;1.30;0.82;;;;;;;18.82;60.98;98874.38;4153399;28;20206;-52
2022/05/19 00:15:51;;;;;;;1.00;1.00;;;;;;;18.80;60.91;98864.69;4138585;28;20806;-52
2022/05/19 00:17:53;;;;;;;1.75;1.23;;;;;;;18.80;60.97;98864.69;4125699;28;20202;-53
2022/05/19 00:19:55;;;;;;;2.50;1.10;;;;;;;18.77;61.13;98865.28;4135163;28;20202;-53
2022/05/19 00:21:56;;;;;;;1.10;1.00;;;;;;;18.75;60.98;98870.28;4134925;28;20222;-52
2022/05/19 00:23:58;;;;;;;1.20;1.05;;;;;;;18.77;61.24;98868.06;4134876;28;20235;-52
2022/05/19 00:26:00;;;;;;;1.02;0.93;;;;;;;18.78;61.17;98875.25;4136649;28;20206;-53
2022/05/19 00:28:02;;;;;;;1.13;1.00;;;;;;;18.77;61.30;98868.88;4136679;28;20616;-53
2022/05/19 00:30:04;;;;;;;1.08;0.98;;;;;;;18.77;61.02;98874.41;4141842;28;20232;-52
2022/05/19 00:32:06;;;;;;;0.80;0.80;;;;;;;18.78;61.07;98869.72;4136493;28;20222;-53
2022/05/19 00:34:08;;;;;;;0.80;0.80;;;;;;;18.77;60.63;98868.06;4140405;28;20217;-53
2022/05/19 00:36:16;;;;;;;0.80;0.80;;;;;;;18.71;60.96;98880.31;4148547;28;20205;-52
2022/05/19 00:38:18;;;;;;;0.82;0.82;;;;;;;18.71;61.14;98869.22;4146276;28;20205;-52
2022/05/19 00:40:22;;;;;;;2.58;1.10;;;;;;;18.71;60.67;98874.78;4141733;28;20263;-52
2022/05/19 00:44:58;;;;;;;1.70;1.60;;;;;;;18.66;60.68;98872.84;4132080;28;20276;-52
2022/05/19 00:46:59;;;;;;;2.50;1.25;;;;;;;18.64;60.73;98875.09;4138840;28;20202;-52
2022/05/19 00:49:16;;;;;;;1.52;0.90;;;;;;;18.58;60.84;98869.91;4138858;28;20206;-53
2022/05/19 00:51:19;;;;;;;1.10;1.00;;;;;;;18.51;60.99;98863.91;4137977;28;20723;-53
2022/05/19 00:53:20;;;;;;;1.27;1.10;;;;;;;18.49;61.05;98866.97;4146056;28;20210;-52
2022/05/19 00:55:28;;;;;;;0.90;0.90;;;;;;;18.46;61.15;98872.25;4140775;28;20252;-52
2022/05/19 00:57:31;;;;;;;1.55;1.35;;;;;;;18.47;61.35;98865.59;4138699;28;20210;-52
2022/05/19 00:59:43;;;;;;;1.17;1.08;;;;;;;18.44;61.30;98866.19;4138712;28;20221;-53
2022/05/19 01:01:45;;;;;;;1.33;1.23;;;;;;;18.41;61.00;98869.53;4138314;28;20226;-52
2022/05/19 01:03:51;;;;;;;1.90;1.13;;;;;;;18.36;61.20;98866.81;4141151;28;20272;-52
2022/05/19 01:05:57;;;;;;;4.78;1.23;;;;;;;18.31;61.25;98869.63;4146175;28;20239;-52
2022/05/19 01:08:16;;;;;;;1.50;1.00;;;;;;;18.26;61.38;98866.88;4140725;28;20751;-53
2022/05/19 01:10:18;;;;;;;1.83;1.02;;;;;;;18.22;61.72;98860.25;4139925;28;20267;-53
2022/05/19 01:12:21;;;;;;;1.45;1.10;;;;;;;18.16;62.05;98858.63;4142177;28;20224;-53
2022/05/19 01:14:23;;;;;;;1.20;1.10;;;;;;;18.09;62.10;98864.53;4138892;28;20252;-52
2022/05/19 01:16:25;;;;;;;1.33;0.98;;;;;;;18.06;61.86;98861.50;4138960;28;20212;-52
2022/05/19 01:18:29;;;;;;;1.60;0.77;;;;;;;18.05;62.30;98854.31;4138874;28;20257;-52
2022/05/19 01:20:31;;;;;;;1.13;1.02;;;;;;;18.02;62.67;98860.44;4136712;28;20217;-53
2022/05/19 01:22:37;;;;;;;1.60;1.23;;;;;;;17.98;62.10;98853.81;4141467;28;20658;-52
2022/05/19 01:24:46;;;;;;;1.50;1.40;;;;;;;17.97;62.40;98847.44;4138975;28;20205;-52
2022/05/19 01:26:53;;;;;;;1.25;1.15;;;;;;;17.92;62.74;98850.25;4141260;28;20232;-52
2022/05/19 01:28:57;;;;;;;1.50;1.40;;;;;;;17.88;62.84;98848.34;4122174;28;20214;-53
2022/05/19 01:30:59;;;;;;;0.90;0.90;;;;;;;17.85;62.44;98854.50;4138116;28;20272;-52
2022/05/19 01:33:01;;;;;;;1.23;1.05;;;;;;;17.85;62.64;98846.19;4139239;28;20230;-53
2022/05/19 01:35:03;;;;;;;0.80;0.80;;;;;;;17.87;62.45;98850.31;4139974;28;20214;-53
2022/05/19 01:37:05;;;;;;;0.90;0.90;;;;;;;17.89;62.45;98850.00;4143580;28;20205;-53
2022/05/19 01:39:16;;;;;;;0.75;0.75;;;;;;;17.92;62.49;98854.97;4138456;28;20320;-53
2022/05/19 01:41:24;;;;;;;1.00;1.00;;;;;;;17.93;62.33;98856.63;4155385;28;20853;-53
2022/05/19 01:43:31;;;;;;;0.95;0.88;;;;;;;17.96;62.16;98856.03;4138231;28;20229;-53
2022/05/19 01:45:56;;;;;;;1.13;0.98;;;;;;;17.96;62.27;98850.50;4141095;28;20230;-53
2022/05/19 01:48:16;;;;;;;1.35;1.25;;;;;;;17.95;62.37;98849.69;4120128;28;20198;-53
2022/05/19 01:50:30;;;;;;;1.10;0.82;;;;;;;17.88;62.20;98849.19;4155138;28;20212;-53
2022/05/19 01:52:45;;;;;;;0.88;0.80;;;;;;;17.81;62.43;98854.25;4143308;28;20208;-53
2022/05/19 01:54:58;;;;;;;1.85;1.13;;;;;;;17.79;62.43;98856.44;4138405;28;20217;-53
2022/05/19 01:57:03;;;;;;;0.90;0.90;;;;;;;17.72;62.67;98849.59;4144103;28;20730;-52
2022/05/19 01:59:13;;;;;;;0.90;0.80;;;;;;;17.69;63.12;98850.16;4137341;28;20592;-53
2022/05/19 02:01:17;;;;;;;0.90;0.90;;;;;;;17.62;63.10;98839.41;4140172;28;20232;-53
2022/05/19 02:03:22;;;;;;;0.95;0.95;;;;;;;17.60;63.11;98843.59;4142647;28;20889;-53
2022/05/19 02:05:50;;;;;;;1.65;1.02;;;;;;;17.55;63.39;98836.16;4136852;28;20209;-53
2022/05/19 02:07:54;;;;;;;1.75;1.40;;;;;;;17.55;63.19;98843.63;4143727;28;20201;-52
2022/05/19 02:09:59;;;;;;;1.02;1.00;;;;;;;17.54;63.23;98850.28;4137329;28;20209;-52
2022/05/19 02:12:01;;;;;;;1.17;1.02;;;;;;;17.51;63.12;98851.66;4138762;28;20225;-53
2022/05/19 02:14:07;;;;;;;1.40;1.17;;;;;;;17.51;62.89;98846.13;4137490;28;20198;-53
2022/05/19 02:16:13;;;;;;;1.40;1.10;;;;;;;17.52;63.06;98850.53;4141087;28;20746;-53
2022/05/19 02:18:17;;;;;;;1.00;0.77;;;;;;;17.53;63.11;98852.19;4143070;28;20201;-53
2022/05/19 02:20:23;;;;;;;1.77;1.00;;;;;;;17.50;63.60;98857.47;4136916;28;21556;-52
2022/05/19 02:22:33;;;;;;;1.27;1.17;;;;;;;17.48;63.34;98849.47;4125388;28;20230;-52
2022/05/19 02:24:50;;;;;;;1.10;0.95;;;;;;;17.43;63.94;98845.91;4135801;28;20232;-53
2022/05/19 02:26:52;;;;;;;1.63;0.88;;;;;;;17.36;63.67;98839.81;4143968;28;20259;-53
2022/05/19 02:28:56;;;;;;;2.17;1.17;;;;;;;17.30;63.50;98835.44;4142967;28;20740;-53
2022/05/19 02:30:59;;;;;;;1.05;1.02;;;;;;;17.28;63.84;98840.44;4136577;28;20217;-53
2022/05/19 02:33:01;;;;;;;1.42;1.13;;;;;;;17.30;63.71;98840.97;4137044;28;20206;-52
2022/05/19 02:35:05;;;;;;;1.42;1.02;;;;;;;17.28;63.69;98843.19;4138084;28;20210;-52
2022/05/19 02:37:07;;;;;;;1.13;1.02;;;;;;;17.27;63.64;98839.63;4142270;28;20205;-52
2022/05/19 02:39:11;;;;;;;1.10;1.00;;;;;;;17.27;63.74;98841.56;4129593;28;20202;-52
2022/05/19 02:41:12;;;;;;;0.85;0.80;;;;;;;17.27;64.07;98836.00;4148672;28;20225;-53
2022/05/19 02:43:15;;;;;;;1.27;1.17;;;;;;;17.24;63.73;98850.41;4144203;28;20213;-52
2022/05/19 02:45:18;;;;;;;1.17;1.08;;;;;;;17.26;64.10;98839.91;4122112;28;20264;-53
2022/05/19 02:47:20;;;;;;;1.23;1.00;;;;;;;17.24;64.09;98842.09;4139690;28;20225;-53
2022/05/19 02:49:22;;;;;;;0.90;0.90;;;;;;;17.21;64.33;98842.69;4138281;28;20556;-52
2022/05/19 02:51:24;;;;;;;1.00;1.00;;;;;;;17.17;63.88;98836.06;4121122;28;20253;-53
2022/05/19 02:53:27;;;;;;;1.33;1.23;;;;;;;17.14;64.18;98831.09;4138117;28;20275;-53
2022/05/19 02:55:29;;;;;;;1.90;1.42;;;;;;;17.11;63.78;98832.50;4137534;28;20214;-53
2022/05/19 02:57:30;;;;;;;0.88;0.88;;;;;;;17.11;63.95;98829.72;4139573;28;20218;-53
2022/05/19 02:59:32;;;;;;;1.90;1.60;;;;;;;17.13;64.40;98835.00;4153239;28;20244;-53
2022/05/19 03:01:34;;;;;;;1.88;1.05;;;;;;;17.12;64.21;98827.81;4137192;28;20769;-53
2022/05/19 03:03:36;;;;;;;1.20;1.10;;;;;;;17.08;64.27;98832.25;4141914;28;20692;-53
2022/05/19 03:05:38;;;;;;;1.20;1.10;;;;;;;17.03;64.40;98835.03;4141456;28;20656;-52
2022/05/19 03:07:39;;;;;;;0.90;0.75;;;;;;;16.98;64.32;98827.59;4149859;28;20632;-53
2022/05/19 03:09:42;;;;;;;1.13;1.02;;;;;;;16.99;64.42;98828.41;4152057;28;20204;-53
2022/05/19 03:11:44;;;;;;;1.17;1.15;;;;;;;17.00;64.50;98828.13;4137457;28;20541;-52
2022/05/19 03:13:46;;;;;;;1.58;1.20;;;;;;;17.00;64.45;98827.31;4137007;28;20687;-53
2022/05/19 03:15:48;;;;;;;1.33;1.08;;;;;;;16.98;64.25;98830.34;4136231;28;20205;-53
2022/05/19 03:17:50;;;;;;;1.17;0.95;;;;;;;16.97;64.04;98840.88;4132441;28;20718;-52
2022/05/19 03:19:53;;;;;;;1.10;1.10;;;;;;;16.97;64.32;98841.69;4135879;28;20209;-53
2022/05/19 03:21:55;;;;;;;1.08;1.08;;;;;;;16.93;64.34;98843.38;4121904;28;20249;-53
2022/05/19 03:23:57;;;;;;;1.95;1.20;;;;;;;16.91;64.74;98837.31;4136842;28;20225;-53
2022/05/19 03:25:58;;;;;;;0.90;0.90;;;;;;;16.88;64.62;98832.34;4139639;28;20202;-53
2022/05/19 03:28:00;;;;;;;1.55;1.15;;;;;;;16.88;64.58;98835.09;4138303;28;20212;-53
2022/05/19 03:30:03;;;;;;;1.52;1.42;;;;;;;16.84;64.79;98842.28;4139314;28;20233;-52
2022/05/19 03:32:06;;;;;;;1.00;0.95;;;;;;;16.78;64.87;98840.69;4146573;28;20233;-52
2022/05/19 03:34:08;;;;;;;1.27;1.17;;;;;;;16.74;65.01;98838.72;4135482;28;20225;-53
2022/05/19 03:36:10;;;;;;;0.80;0.80;;;;;;;16.70;65.30;98835.72;4137168;28;20252;-53
2022/05/19 03:38:12;;;;;;;1.30;0.95;;;;;;;16.72;65.27;98839.03;4140437;28;20213;-52
2022/05/19 03:40:16;;;;;;;1.20;1.10;;;;;;;16.69;65.32;98838.78;4142310;28;20228;-53
2022/05/19 03:42:18;;;;;;;1.17;1.10;;;;;;;16.69;64.69;98845.13;4136954;28;20222;-53
2022/05/19 03:44:19;;;;;;;1.42;1.33;;;;;;;16.69;64.90;98839.59;4137754;28;20520;-52
2022/05/19 03:46:21;;;;;;;1.77;1.25;;;;;;;16.72;64.79;98843.72;4142449;28;20376;-53
2022/05/19 03:48:23;;;;;;;1.02;0.98;;;;;;;16.71;65.05;98847.59;4122040;28;20291;-53
2022/05/19 03:50:25;;;;;;;1.35;1.25;;;;;;;16.69;64.78;98852.59;4141155;28;20610;-53
2022/05/19 03:52:27;;;;;;;2.03;1.20;;;;;;;16.65;65.28;98854.25;4123075;28;20230;-53
2022/05/19 03:54:29;;;;;;;1.58;1.10;;;;;;;16.61;65.46;98854.00;4135860;28;20208;-53
2022/05/19 03:56:30;;;;;;;1.60;1.30;;;;;;;16.46;65.98;98850.44;4140875;28;20247;-52
2022/05/19 03:58:32;;;;;;;1.30;1.20;;;;;;;16.42;66.09;98850.16;4137127;28;20209;-53
2022/05/19 04:00:34;;;;;;;1.38;1.27;;;;;;;16.46;65.84;98845.75;4139469;28;20212;-53
2022/05/19 04:02:36;;;;;;;2.05;1.25;;;;;;;16.48;65.83;98838.00;4137155;28;20209;-53
2022/05/19 04:04:37;;;;;;;1.45;1.35;;;;;;;16.36;66.45;98845.72;4136144;28;20234;-53
2022/05/19 04:06:39;;;;;;;2.13;1.17;;;;;;;16.41;66.57;98837.47;4135622;28;20216;-52
2022/05/19 04:08:41;;;;;;;1.20;1.10;;;;;;;16.44;65.97;98838.84;4133669;28;20233;-52
2022/05/19 04:10:44;;;;;;;2.00;1.23;;;;;;;16.46;65.53;98854.03;4137560;28;20213;-53
2022/05/19 04:12:46;;;;;;;0.90;0.85;;;;;;;16.52;65.91;98855.69;4137339;28;20260;-53
2022/05/19 04:14:48;;;;;;;1.30;1.20;;;;;;;16.56;65.71;98856.75;4141234;28;20707;-52
2022/05/19 04:16:52;;;;;;;1.55;1.42;;;;;;;16.59;65.62;98861.75;4140195;28;20198;-52
2022/05/19 04:18:54;;;;;;;1.35;1.25;;;;;;;16.59;65.86;98861.75;4138007;28;20296;-52
2022/05/19 04:20:56;;;;;;;1.90;1.45;;;;;;;16.56;65.44;98867.81;4149458;28;20229;-52
2022/05/19 04:22:59;;;;;;;1.98;1.50;;;;;;;16.57;65.31;98858.41;4132563;28;20715;-52
2022/05/19 04:25:02;;;;;;;1.60;1.50;;;;;;;16.59;65.18;98861.75;4142613;28;20686;-53
2022/05/19 04:27:04;;;;;;;1.80;1.17;;;;;;;16.63;65.44;98867.53;4135875;28;20224;-53
2022/05/19 04:29:06;;;;;;;1.13;1.02;;;;;;;16.65;65.52;98870.84;4135514;28;20241;-53
2022/05/19 04:31:08;;;;;;;1.80;1.55;;;;;;;16.64;65.70;98867.22;4133436;28;20237;-53
2022/05/19 04:33:10;;;;;;;2.33;1.90;;;;;;;16.63;65.69;98868.34;4134476;28;20586;-52
2022/05/19 04:35:14;;;;;;;1.52;1.30;;;;;;;16.66;65.66;98864.19;4137069;28;20220;-53
2022/05/19 04:37:16;;;;;;;1.40;1.30;;;;;;;16.65;65.61;98866.16;4135803;28;20280;-53
2022/05/19 04:39:18;;;;;;;1.52;1.27;;;;;;;16.68;65.30;98868.34;4136776;28;20221;-53
2022/05/19 04:41:20;;;;;;;1.40;1.30;;;;;;;16.68;65.69;98868.34;4136043;28;20248;-53
2022/05/19 04:43:22;;;;;;;1.48;1.38;;;;;;;16.74;65.85;98864.44;4136635;28;20278;-53
2022/05/19 04:45:24;;;;;;;1.58;1.42;;;;;;;16.80;65.74;98866.09;4140419;28;20206;-53
2022/05/19 04:47:26;;;;;;;2.08;1.98;;;;;;;16.76;66.21;98873.28;4148061;28;20228;-52
2022/05/19 04:49:28;;;;;;;1.38;1.27;;;;;;;16.85;65.75;98866.09;4136423;28;20737;-52
2022/05/19 04:51:31;;;;;;;1.02;0.93;;;;;;;16.89;65.65;98871.88;4119143;28;20797;-53
2022/05/19 04:53:32;;;;;;;1.48;1.38;;;;;;;16.92;65.56;98872.13;4135806;28;20227;-53
2022/05/19 04:55:35;;;;;;;1.67;1.50;;;;;;;17.01;65.40;98867.66;4140711;28;20209;-53
2022/05/19 04:57:38;;;;;;;2.47;1.42;;;;;;;17.00;65.53;98868.78;4137912;28;20213;-52
2022/05/19 04:59:41;;;;;;;2.55;1.00;;;;;;;17.02;65.52;98866.56;4136358;28;20868;-52
2022/05/19 05:01:45;;;;;;;1.20;1.10;;;;;;;17.09;64.99;98872.59;4131427;28;20233;-53
2022/05/19 05:03:47;;;;;;;1.65;1.38;;;;;;;17.12;65.10;98874.81;4137654;28;20227;-52
2022/05/19 05:05:48;;;;;;;0.82;0.82;;;;;;;17.16;65.41;98889.72;4137352;28;20206;-52
2022/05/19 05:07:50;;;;;;;1.40;1.13;;;;;;;17.22;65.13;98891.34;4133686;28;20701;-52
2022/05/19 05:09:52;;;;;;;1.23;1.00;;;;;;;17.31;64.96;98887.72;4132357;28;20213;-53
2022/05/19 05:11:54;;;;;;;1.40;1.30;;;;;;;17.45;64.40;98887.97;4134874;28;20234;-53
2022/05/19 05:13:56;;;;;;;1.48;1.38;;;;;;;17.48;64.97;98876.31;4148836;28;20202;-51
2022/05/19 05:15:58;;;;;;;1.35;1.25;;;;;;;17.52;64.97;98882.94;4132857;28;20209;-51
2022/05/19 05:18:00;;;;;;;1.50;1.40;;;;;;;17.60;64.61;98885.91;4135348;28;20205;-52
2022/05/19 05:20:03;;;;;;;1.25;1.00;;;;;;;17.72;64.29;98888.34;4131336;28;20622;-51
2022/05/19 05:22:05;;;;;;;1.17;0.98;;;;;;;17.82;64.19;98888.28;4122151;28;20261;-51
2022/05/19 05:24:07;;;;;;;1.30;1.20;;;;;;;17.92;63.90;98899.28;4139985;28;20275;-51
2022/05/19 05:26:09;;;;;;;1.38;1.15;;;;;;;18.02;63.78;98891.72;4139958;28;20206;-51
2022/05/19 05:28:11;;;;;;;1.13;1.05;;;;;;;18.12;64.23;98888.06;4140714;28;20201;-51
2022/05/19 05:30:13;;;;;;;1.50;1.40;;;;;;;18.23;64.75;98893.22;4135733;28;20251;-52
2022/05/19 05:32:15;;;;;;;1.23;1.15;;;;;;;18.35;64.49;98892.88;4141699;28;20317;-51
2022/05/19 05:34:17;;;;;;;1.80;1.38;;;;;;;18.49;64.69;98883.59;4135308;28;20235;-52
2022/05/19 05:36:19;;;;;;;1.17;1.08;;;;;;;18.68;64.05;98894.75;4141478;28;20632;-51
2022/05/19 05:38:20;;;;;;;0.98;0.98;;;;;;;18.80;63.35;98896.03;4140060;28;20205;-52
2022/05/19 05:40:22;;;;;;;6.43;1.42;;;;;;;18.86;62.92;98894.81;4138680;28;20280;-51
2022/05/19 05:42:24;;;;;;;1.00;1.00;;;;;;;18.92;62.68;98903.94;4141143;28;20767;-50
2022/05/19 05:44:26;;;;;;;1.05;1.05;;;;;;;18.96;62.61;98899.44;4136832;28;20218;-51
2022/05/19 05:46:27;;;;;;;1.73;1.20;;;;;;;19.03;62.18;98911.00;4139015;28;20279;-51
2022/05/19 05:48:29;;;;;;;1.77;1.67;;;;;;;18.98;62.04;98902.75;4142098;28;20370;-51
2022/05/19 05:50:31;;;;;;;1.30;1.20;;;;;;;19.15;62.17;98909.50;4136374;28;20605;-52
2022/05/19 05:52:33;;;;;;;1.23;1.10;;;;;;;19.27;61.64;98911.88;4137167;28;20625;-52
2022/05/19 05:54:38;;;;;;;1.67;1.10;;;;;;;19.42;61.66;98908.88;4127244;28;20676;-51
2022/05/19 05:56:40;;;;;;;1.02;0.93;;;;;;;19.61;61.71;98912.53;4135154;28;20205;-51
2022/05/19 05:58:42;;;;;;;1.20;1.10;;;;;;;19.72;61.18;98914.03;4136310;28;20237;-51
2022/05/19 06:00:44;;;;;;;1.20;0.93;;;;;;;19.81;60.42;98913.06;4138687;28;20674;-53
2022/05/19 06:02:45;;;;;;;1.23;1.10;;;;;;;19.94;60.07;98908.72;4121061;28;20225;-52
2022/05/19 06:04:47;;;;;;;1.65;1.40;;;;;;;19.98;59.89;98907.00;4137289;28;20454;-52
2022/05/19 06:06:49;;;;;;;1.15;1.05;;;;;;;20.16;59.25;98914.50;4133044;28;20656;-52
2022/05/19 06:08:51;;;;;;;1.40;1.23;;;;;;;20.29;59.05;98903.44;4147599;28;20220;-52
2022/05/19 06:10:53;;;;;;;0.90;0.90;;;;;;;20.42;58.88;98918.50;4137089;28;20225;-51
2022/05/19 06:12:56;;;;;;;1.05;0.93;;;;;;;20.53;58.57;98920.00;4119001;28;20293;-52
2022/05/19 06:14:58;;;;;;;1.20;1.10;;;;;;;20.62;58.50;98918.16;4151957;28;20278;-52
2022/05/19 06:17:00;;;;;;;0.98;0.90;;;;;;;20.66;58.45;98920.06;4152341;28;20201;-52
2022/05/19 06:19:02;;;;;;;1.90;1.20;;;;;;;20.73;58.24;98908.50;4137048;28;20292;-53
2022/05/19 06:21:04;;;;;;;1.13;1.00;;;;;;;20.76;58.19;98910.66;4135812;28;20300;-52
2022/05/19 06:23:07;;;;;;;2.17;1.33;;;;;;;20.81;57.63;98921.72;4138683;28;20212;-52
2022/05/19 06:25:10;;;;;;;1.05;0.90;;;;;;;20.84;57.67;98921.13;4152215;28;20290;-52
2022/05/19 06:27:11;;;;;;;2.15;0.80;;;;;;;20.89;57.72;98921.03;4132466;28;20263;-51
2022/05/19 06:29:16;;;;;;;0.73;0.73;;;;;;;20.90;57.65;98925.50;4136626;28;20205;-52
2022/05/19 06:31:18;;;;;;;0.77;0.77;;;;;;;20.94;57.69;98927.34;4137262;28;20228;-52
2022/05/19 06:33:22;;;;;;;1.13;1.00;;;;;;;20.99;57.69;98918.06;4136615;28;20223;-52
2022/05/19 06:35:27;;;;;;;1.15;1.00;;;;;;;21.03;57.80;98924.66;4141998;28;20205;-51
2022/05/19 06:37:29;;;;;;;1.55;1.42;;;;;;;21.07;57.56;98931.28;4139185;28;20216;-52
2022/05/19 06:39:37;;;;;;;1.92;1.70;;;;;;;21.20;57.72;98933.25;4136613;28;20264;-51
2022/05/19 06:44:00;;;;;;;1.85;1.10;;;;;;;21.45;56.70;98921.59;4135311;28;20222;-53
2022/05/19 06:46:04;;;;;;;1.15;1.05;;;;;;;21.43;55.93;98919.13;4136274;28;20232;-51
2022/05/19 06:48:09;;;;;;;1.10;1.00;;;;;;;21.30;56.84;98916.34;4137894;28;20662;-51
2022/05/19 06:50:13;;;;;;;3.30;1.17;;;;;;;21.49;57.67;98912.31;4127220;28;20221;-51
2022/05/19 06:52:21;;;;;;;1.27;1.13;;;;;;;21.67;57.31;98913.34;4143670;28;20224;-52
2022/05/19 06:54:23;;;;;;;1.13;0.90;;;;;;;21.88;56.50;98922.88;4136842;28;20203;-52
2022/05/19 06:56:23;;;;;;;0.98;0.93;;;;;;;21.99;55.44;98921.53;4144691;28;20260;-51
2022/05/19 06:58:25;;;;;;;2.03;0.90;;;;;;;21.96;56.70;98914.63;4136790;28;20212;-51
2022/05/19 07:00:28;;;;;;;1.35;1.25;;;;;;;22.25;55.82;98908.63;4138075;28;20205;-51
2022/05/19 07:02:33;;;;;;;1.70;1.17;;;;;;;22.40;55.30;98911.03;4134956;28;20259;-51
2022/05/19 07:04:35;;;;;;;0.85;0.77;;;;;;;22.40;55.19;98911.88;4141465;28;20326;-51
2022/05/19 07:06:36;;;;;;;1.10;1.00;;;;;;;22.70;54.77;98910.31;4137798;28;20208;-52
2022/05/19 07:08:39;;;;;;;1.02;1.00;;;;;;;22.63;54.52;98915.53;4136387;28;20214;-51
2022/05/19 07:10:41;;;;;;;1.05;0.88;;;;;;;22.87;54.88;98927.13;4140233;28;20792;-50
2022/05/19 07:12:45;;;;;;;1.15;1.02;;;;;;;23.06;54.65;98924.94;4149011;28;20682;-52
2022/05/19 07:14:47;;;;;;;1.10;1.00;;;;;;;23.17;53.89;98926.34;4133903;28;20256;-51
2022/05/19 07:16:49;;;;;;;1.27;1.17;;;;;;;23.25;54.43;98928.34;4132403;28;20233;-50
2022/05/19 07:18:51;;;;;;;1.33;1.05;;;;;;;23.36;53.57;98932.53;4137495;28;20240;-51
2022/05/19 07:20:53;;;;;;;0.90;0.88;;;;;;;23.47;53.79;98931.91;4134709;28;20723;-51
2022/05/19 07:22:54;;;;;;;1.13;1.00;;;;;;;23.25;53.00;98931.16;4119031;28;20201;-50
2022/05/19 07:24:59;;;;;;;1.58;1.48;;;;;;;22.83;52.16;98926.97;4129185;28;20271;-51
2022/05/19 07:27:01;;;;;;;2.05;1.10;;;;;;;22.81;52.61;98928.41;4133231;28;20240;-51
2022/05/19 07:29:03;;;;;;;1.17;1.17;;;;;;;22.65;53.07;98935.53;4137150;28;20216;-51
2022/05/19 07:31:06;;;;;;;1.10;1.00;;;;;;;22.79;53.10;98931.53;4118971;28;20303;-53
2022/05/19 07:33:07;;;;;;;1.00;0.90;;;;;;;22.86;53.23;98931.09;4134283;28;20236;-51
2022/05/19 07:35:11;;;;;;;2.08;1.17;;;;;;;23.04;53.46;98932.84;4136802;28;20201;-51
2022/05/19 07:37:13;;;;;;;1.40;1.17;;;;;;;23.06;51.65;98933.31;4136897;28;20723;-53
2022/05/19 07:39:15;;;;;;;1.20;1.08;;;;;;;23.09;52.32;98929.88;4142768;28;20213;-51
2022/05/19 07:41:17;;;;;;;0.85;0.85;;;;;;;23.10;52.08;98925.97;4135517;28;20683;-51
2022/05/19 07:43:37;;;;;;;1.38;0.80;;;;;;;23.18;51.52;98925.22;4140411;28;20320;-52
2022/05/19 07:45:38;;;;;;;1.67;1.00;;;;;;;23.19;51.21;98935.22;4137379;28;20295;-52
2022/05/19 07:47:41;;;;;;;4.13;1.02;;;;;;;23.11;51.78;98930.41;4143069;28;20674;-51
2022/05/19 07:49:42;;;;;;;1.08;0.98;;;;;;;23.26;51.51;98930.00;4138689;28;20200;-52
2022/05/19 07:51:44;;;;;;;1.02;0.95;;;;;;;23.33;51.37;98930.34;4140174;28;20235;-51
2022/05/19 07:53:46;;;;;;;0.98;0.80;;;;;;;23.28;51.84;98939.72;4151995;28;20196;-52
2022/05/19 07:55:48;;;;;;;1.35;1.00;;;;;;;23.45;51.65;98924.97;4136329;28;20675;-52
2022/05/19 07:57:50;;;;;;;1.08;0.80;;;;;;;23.45;51.93;98922.19;4138312;28;20205;-51
2022/05/19 07:59:52;;;;;;;1.10;1.00;;;;;;;23.49;51.49;98925.97;4137696;28;20759;-51
2022/05/19 08:01:55;;;;;;;1.67;1.05;;;;;;;23.42;50.74;98922.81;4141703;28;20225;-51
2022/05/19 08:03:58;;;;;;;1.85;0.85;;;;;;;23.45;51.13;98927.78;4134653;28;20296;-51
2022/05/19 08:06:00;;;;;;;3.35;0.98;;;;;;;23.66;50.99;98912.06;4135989;28;20233;-51
2022/05/19 08:08:02;;;;;;;3.00;1.90;;;;;;;23.73;51.12;98912.41;4136015;28;20211;-52
2022/05/19 08:17:10;;;;;;;1.38;0.93;;;;;;;24.77;50.16;98916.56;4137141;28;20534;-51
2022/05/19 08:19:12;;;;;;;0.88;0.80;;;;;;;24.81;49.98;98918.38;4138567;28;20210;-51
2022/05/19 08:21:14;;;;;;;1.10;1.00;;;;;;;25.17;49.82;98915.97;4135021;28;20225;-51
2022/05/19 08:23:19;;;;;;;0.85;0.85;;;;;;;25.57;50.33;98908.88;4132838;28;20202;-51
2022/05/19 08:25:26;;;;;;;4.68;0.82;;;;;;;25.75;49.09;98904.84;4137715;28;20216;-52
2022/05/19 08:27:29;;;;;;;2.83;1.10;;;;;;;25.92;48.94;98913.16;4135192;28;20259;-53
2022/05/19 08:29:31;;;;;;;8.20;0.90;;;;;;;26.01;48.87;98908.31;4135135;28;20201;-52
2022/05/19 08:31:32;;;;;;;0.82;0.80;;;;;;;26.19;49.22;98909.00;4139903;28;20236;-51
2022/05/19 08:33:35;;;;;;;1.85;1.05;;;;;;;26.17;48.00;98906.53;4136069;28;20212;-51
2022/05/19 08:35:37;;;;;;;1.00;0.90;;;;;;;26.05;48.21;98909.25;4135075;28;20243;-51
2022/05/19 08:37:39;;;;;;;3.50;1.75;;;;;;;26.22;48.31;98900.72;4140104;28;20676;-51
2022/05/19 08:39:40;;;;;;;1.10;0.70;;;;;;;26.23;48.72;98898.72;4134713;28;20572;-53
2022/05/19 08:41:52;;;;;;;1.42;1.17;;;;;;;26.18;48.61;98899.75;4137478;28;20342;-51
2022/05/19 08:44:09;;;;;;;2.08;1.20;;;;;;;26.49;48.77;98891.72;4119651;28;20271;-53
2022/05/19 08:46:18;;;;;;;1.27;1.17;;;;;;;26.42;48.46;98896.25;4135223;28;20232;-51
2022/05/19 08:48:24;;;;;;;2.20;1.40;;;;;;;26.38;48.22;98901.72;4123517;28;20229;-51
2022/05/19 08:50:51;;;;;;;1.33;1.23;;;;;;;26.16;49.35;98902.09;4136842;28;20268;-51
2022/05/19 08:52:53;;;;;;;0.90;0.80;;;;;;;26.47;48.50;98899.66;4135046;28;20205;-51
2022/05/19 08:54:57;;;;;;;1.95;0.90;;;;;;;26.42;48.67;98908.31;4139208;28;20197;-51
2022/05/19 08:57:14;;;;;;;0.90;0.90;;;;;;;26.34;48.16;98895.19;4145804;28;20201;-51
2022/05/19 08:59:18;;;;;;;1.27;1.00;;;;;;;26.28;47.83;98896.56;4138083;28;20219;-51
2022/05/19 09:01:47;;;;;;;2.15;1.02;;;;;;;26.14;48.28;98890.38;4138040;28;20237;-52
2022/05/19 09:04:13;;;;;;;1.00;0.95;;;;;;;26.29;49.39;98892.56;4132665;28;20216;-51
2022/05/19 09:09:38;;;;;;;1.40;0.90;;;;;;;26.56;49.59;98897.66;4136538;28;20307;-51
2022/05/19 09:11:51;;;;;;;1.40;1.30;;;;;;;27.11;49.24;98892.41;4135383;28;20233;-51
2022/05/19 09:14:25;;;;;;;0.80;0.80;;;;;;;27.35;47.84;98900.09;4136685;28;20252;-50
2022/05/19 09:16:38;;;;;;;1.38;1.17;;;;;;;27.44;47.77;98896.00;4135737;28;20251;-52
2022/05/19 09:18:44;;;;;;;2.55;1.00;;;;;;;27.43;47.21;98899.97;4135019;28;20217;-51
2022/05/19 09:20:54;;;;;;;0.80;0.80;;;;;;;27.21;47.36;98886.38;4136915;28;20300;-50
2022/05/19 09:23:01;;;;;;;1.02;1.00;;;;;;;26.99;47.83;98883.94;4139985;28;20204;-51
2022/05/19 09:25:10;;;;;;;1.00;0.90;;;;;;;27.43;47.32;98891.53;4139627;28;20614;-51
2022/05/19 09:27:12;;;;;;;0.90;0.90;;;;;;;27.51;46.72;98896.22;4145374;28;20204;-53
2022/05/19 09:29:17;;;;;;;1.05;0.95;;;;;;;27.85;46.65;98884.50;4146466;28;20733;-52
2022/05/19 09:31:36;;;;;;;1.08;0.70;;;;;;;28.21;46.49;98880.81;4145842;28;20233;-52
2022/05/19 09:33:42;;;;;;;0.85;0.85;;;;;;;28.25;45.26;98888.16;4153471;28;20768;-51
2022/05/19 09:35:49;;;;;;;1.45;1.35;;;;;;;28.07;45.24;98886.84;4136603;28;20198;-51
2022/05/19 09:38:26;;;;;;;0.93;0.90;;;;;;;28.10;46.48;98891.75;4140451;28;20268;-51
2022/05/19 09:40:30;;;;;;;0.95;0.85;;;;;;;28.30;45.18;98890.75;4131754;28;20223;-51
2022/05/19 09:42:50;;;;;;;1.10;0.80;;;;;;;28.00;46.08;98880.97;4138119;28;20205;-51
2022/05/19 09:44:56;;;;;;;1.30;1.20;;;;;;;28.09;46.56;98878.84;4137678;28;20205;-51
2022/05/19 09:46:58;;;;;;;2.38;1.25;;;;;;;28.31;45.38;98875.47;4139081;28;20197;-51
2022/05/19 09:49:02;;;;;;;1.08;0.90;;;;;;;28.33;45.12;98867.50;4153854;28;20651;-50
2022/05/19 09:51:14;;;;;;;1.20;0.70;;;;;;;28.27;45.01;98868.94;4144706;28;20264;-51
2022/05/19 09:53:17;;;;;;;0.82;0.82;;;;;;;28.17;44.75;98875.06;4140356;28;20231;-51
2022/05/19 09:55:22;;;;;;;1.45;0.90;;;;;;;28.00;45.15;98864.06;4138312;28;20201;-49
2022/05/19 09:57:34;;;;;;;4.85;0.90;;;;;;;28.00;45.12;98866.88;4121685;28;20237;-51
2022/05/19 09:59:48;;;;;;;1.13;1.02;;;;;;;28.21;45.89;98876.00;4128241;28;20731;-51
2022/05/19 10:01:56;;;;;;;1.00;0.82;;;;;;;28.34;45.45;98869.16;4136796;28;20288;-52